Toronto/City Centre Seaplane Base

CPZ9 · Ontario, Canadá

História da METAR CPZ9 · Toronto/City Centre Seaplane Base

Abaixo você vê METARs dos últimos dias. Selecione um ano para navegar pelos METARs mais antigos, a partir do ano 2007.

14 de julho de 2024

Hora Código Clima Temp. Visibilidade Tecto Vento METAR/SPECI
21:00
V
23 °C 9 mi - 300° 300° 6 kt METAR CYTZ 150100Z AUTO 30006KT 240V320 9SM FEW210 23/22 A2984 RMK SLP105 DENSITY ALT 1400FT
20:00
V
24 °C 9 mi - 280° 280° 5 kt METAR CYTZ 150000Z AUTO 28005KT 200V320 9SM FEW046 24/22 A2984 RMK SLP107 DENSITY ALT 1500FT
19:00
V
25 °C 9 mi - Var Var 4 kt METAR CYTZ 142300Z AUTO VRB04KT 9SM FEW096 25/22 A2985 RMK SLP110 DENSITY ALT 1600FT
18:00
V
24 °C 9 mi 8.700 ft 100° 100° 4 kt METAR CYTZ 142200Z AUTO 10004KT 050V180 9SM FEW055 BKN087 BKN110 24/21 A2987 RMK SLP118 DENSITY ALT 1500FT
17:00
V
24 °C 9 mi 9.100 ft 280° 280° 6 kt METAR CYTZ 142100Z AUTO 28006KT 180V310 9SM BKN091 BKN110 BKN140 24/21 A2990 RMK SLP126 DENSITY ALT 1400FT
16:00
V
23 °C 9 mi 9.100 ft 230° 230° 5 kt METAR CYTZ 142000Z AUTO 23005KT 210V300 9SM OVC091 23/21 A2992 RMK SLP132 DENSITY ALT 1200FT
15:28
V
22 °C 9 mi 9.000 ft 270° 270° 4 kt METAR CYTZ 141928Z AUTO 27004KT 210V320 9SM FEW071 OVC090 22/21 A2993 RMK LTNG DIST SE SLP136 DENSITY ALT 1200FT
15:00
V
22 °C 9 mi 7.600 ft 240° 240° 11 - 21 kt METAR CYTZ 141900Z AUTO 24011G21KT 9SM -RA BKN076 OVC089 22/21 A2994 RMK PCPN 2.2MM PAST HR SLP140 DENSITY ALT 1100FT
14:53
V
22 °C 9 mi 8.500 ft 270° 270° 17 - 25 kt METAR CYTZ 141853Z AUTO 27017G25KT 9SM RA FEW046 SCT066 OVC085 22/20 A2994 RMK LTNG DIST ALQDS PCPN 2.0MM PAST HR SLP141 DENSITY ALT 1100FT
14:27
V
23 °C 8 mi 9.100 ft 240° 240° 23 - 39 kt METAR CYTZ 141827Z AUTO 24023G39KT 160V250 8SM RA VCTS SQ SCT044 SCT050 BKN091 BKN110 23/21 A2993 RMK LTNG DIST ALQDS PRESRR SLP136 DENSITY ALT 1300FT
14:19
V
26 °C 9 mi - 170° 170° 9 kt METAR CYTZ 141819Z AUTO 17009KT 9SM -RA FEW045 26/22 A2992 RMK LTNG DIST ALQDS SLP131 DENSITY ALT 1600FT
14:00
V
27 °C 9 mi - 160° 160° 10 - 18 kt METAR CYTZ 141800Z AUTO 16010G18KT 070V180 9SM CLR 27/22 A2991 RMK LTNG DIST SW W NW SLP130 DENSITY ALT 1700FT
13:00
V
27 °C 9 mi - 120° 120° 8 kt METAR CYTZ 141700Z AUTO 12008KT 060V140 9SM CLR 27/22 A2994 RMK SLP140 DENSITY ALT 1700FT
12:00
V
26 °C 9 mi - 090° 090° 7 kt METAR CYTZ 141600Z AUTO 09007KT 040V140 9SM CLR 26/22 A2997 RMK SLP150 DENSITY ALT 1600FT
11:37
V
26 °C 9 mi - 100° 100° 7 - 15 kt SPECI CYTZ 141537Z AUTO 10007G15KT 050V160 9SM CLR 26/21 A2998 RMK SLP155 DENSITY ALT 1500FT
11:27
V
25 °C 5 mi - 130° 130° 9 - 16 kt SPECI CYTZ 141527Z AUTO 13009G16KT 090V190 5SM HZ CLR 25/21 A2999 RMK SLP156 DENSITY ALT 1500FT
11:00
V
26 °C 6 mi - 150° 150° 5 kt METAR CYTZ 141500Z AUTO 15005KT 050V200 6SM HZ CLR 26/21 A3000 RMK SLP159 DENSITY ALT 1500FT
10:00
V
24 °C 9 mi - 180° 180° 5 kt METAR CYTZ 141400Z AUTO 18005KT 9SM CLR 24/18 A3001 RMK SLP165 DENSITY ALT 1300FT
09:00
V
23 °C 8 mi - 160° 160° 5 kt METAR CYTZ 141300Z AUTO 16005KT 8SM CLR 23/21 A3003 RMK SLP169 DENSITY ALT 1200FT
08:31
V
23 °C 6 mi - 190° 190° 4 kt SPECI CYTZ 141231Z AUTO 19004KT 160V230 6SM BR CLR 23/22 A3003 RMK SLP171 DENSITY ALT 1200FT
08:00
V
23 °C 5 mi - 210° 210° 3 kt METAR CYTZ 141200Z AUTO 21003KT 5SM BR CLR 23/21 A3004 RMK SLP173 DENSITY ALT 1100FT
07:58
V
22 °C 5 mi - 210° 210° 3 kt SPECI CYTZ 141158Z AUTO 21003KT 5SM BR CLR 22/21 A3004 RMK SLP173 DENSITY ALT 1100FT
07:00
V
21 °C 6 mi - 180° 180° 2 kt METAR CYTZ 141100Z AUTO 18002KT 6SM BR CLR 21/20 A3003 RMK SLP170 DENSITY ALT 1000FT
06:52
V
22 °C 6 mi - 360° 360° 0 kt SPECI CYTZ 141052Z AUTO 00000KT 6SM BR CLR 22/20 A3003 RMK SLP171 DENSITY ALT 1000FT
06:11
V
21 °C 5 mi - 360° 360° 0 kt SPECI CYTZ 141011Z AUTO 00000KT 5SM BR CLR 21/20 A3003 RMK SLP171 DENSITY ALT 900FT
05:37
V
21 °C 6 mi - 260° 260° 4 kt SPECI CYTZ 140937Z AUTO 26004KT 220V310 6SM BR CLR 21/20 A3004 RMK SLP174 DENSITY ALT 900FT
05:30
V
21 °C 5 mi - 240° 240° 5 kt SPECI CYTZ 140930Z AUTO 24005KT 210V280 5SM BR CLR 21/20 A3004 RMK SLP175 DENSITY ALT 900FT
05:00
V
21 °C 9 mi - 270° 270° 4 kt METAR CYTZ 140900Z AUTO 27004KT 240V310 9SM CLR 21/20 A3004 RMK SLP173 DENSITY ALT 900FT
04:00
V
22 °C 9 mi - 310° 310° 6 kt METAR CYTZ 140800Z AUTO 31006KT 9SM CLR 22/20 A3004 RMK SLP173 DENSITY ALT 1000FT
03:00
V
22 °C 9 mi - 290° 290° 7 kt METAR CYTZ 140700Z AUTO 29007KT 9SM CLR 22/20 A3005 RMK SLP177 DENSITY ALT 1000FT
02:00
V
23 °C 9 mi - 280° 280° 6 kt METAR CYTZ 140600Z AUTO 28006KT 240V310 9SM CLR 23/20 A3007 RMK SLP183 DENSITY ALT 1100FT
01:00
V
23 °C 9 mi - 280° 280° 4 kt METAR CYTZ 140500Z AUTO 28004KT 240V320 9SM CLR 23/20 A3007 RMK SLP185 DENSITY ALT 1100FT
00:00
V
23 °C 9 mi - 280° 280° 5 kt METAR CYTZ 140400Z AUTO 28005KT 240V320 9SM CLR 23/21 A3007 RMK SLP183 DENSITY ALT 1100FT

13 de julho de 2024

Hora Código Clima Temp. Visibilidade Tecto Vento METAR/SPECI
23:00
V
23 °C 9 mi - 280° 280° 4 kt METAR CYTZ 140300Z AUTO 28004KT 200V320 9SM CLR 23/19 A3008 RMK SLP186 DENSITY ALT 1100FT
22:00
V
22 °C 9 mi - Var Var 3 kt METAR CYTZ 140200Z AUTO VRB03KT 9SM CLR 22/19 A3008 RMK SLP188 DENSITY ALT 900FT
21:00
V
24 °C 9 mi - 040° 040° 4 kt METAR CYTZ 140100Z AUTO 04004KT 030V160 9SM CLR 24/18 A3008 RMK SLP188 DENSITY ALT 1200FT
20:00
V
25 °C 9 mi - 180° 180° 2 kt METAR CYTZ 140000Z AUTO 18002KT 9SM CLR 25/18 A3009 RMK SLP191 DENSITY ALT 1300FT
19:00
V
26 °C 9 mi - 170° 170° 6 kt METAR CYTZ 132300Z AUTO 17006KT 9SM CLR 26/16 A3009 RMK SLP192 DENSITY ALT 1400FT
18:00
V
27 °C 9 mi - 140° 140° 5 kt METAR CYTZ 132200Z AUTO 14005KT 120V180 9SM CLR 27/17 A3010 RMK SLP193 DENSITY ALT 1500FT
17:00
V
27 °C 9 mi - 150° 150° 4 kt METAR CYTZ 132100Z AUTO 15004KT 120V200 9SM CLR 27/17 A3011 RMK SLP199 DENSITY ALT 1500FT
16:00
V
25 °C 9 mi - 180° 180° 6 kt METAR CYTZ 132000Z AUTO 18006KT 9SM CLR 25/20 A3013 RMK SLP204 DENSITY ALT 1300FT
15:00
V
25 °C 9 mi - 190° 190° 5 kt METAR CYTZ 131900Z AUTO 19005KT 9SM CLR 25/21 A3014 RMK SLP207 DENSITY ALT 1300FT
14:00
V
25 °C 9 mi - 180° 180° 6 kt METAR CYTZ 131800Z AUTO 18006KT 9SM CLR 25/21 A3014 RMK SLP208 DENSITY ALT 1200FT
13:00
V
24 °C 9 mi - 190° 190° 7 kt METAR CYTZ 131700Z AUTO 19007KT 160V220 9SM CLR 24/20 A3015 RMK SLP213 DENSITY ALT 1100FT
12:00
V
23 °C 9 mi - 190° 190° 7 kt METAR CYTZ 131600Z AUTO 19007KT 170V250 9SM CLR 23/20 A3017 RMK SLP217 DENSITY ALT 1000FT
11:00
V
23 °C 9 mi - 190° 190° 6 kt METAR CYTZ 131500Z AUTO 19006KT 180V250 9SM CLR 23/20 A3017 RMK SLP218 DENSITY ALT 1000FT
10:00
V
23 °C 9 mi - 220° 220° 5 kt METAR CYTZ 131400Z AUTO 22005KT 210V270 9SM CLR 23/20 A3016 RMK SLP214 DENSITY ALT 1100FT
09:00
V
22 °C 9 mi - 260° 260° 6 kt METAR CYTZ 131300Z AUTO 26006KT 210V280 9SM CLR 22/20 A3017 RMK SLP218 DENSITY ALT 900FT
08:00
V
21 °C 7 mi - 280° 280° 7 kt METAR CYTZ 131200Z AUTO 28007KT 7SM CLR 21/20 A3016 RMK SLP216 DENSITY ALT 800FT
07:42
V
20 °C 6 mi - 260° 260° 6 kt SPECI CYTZ 131142Z AUTO 26006KT 240V300 6SM BR CLR 20/20 A3016 RMK SLP215 DENSITY ALT 700FT
07:00
M
20 °C 4 mi - 270° 270° 5 kt METAR CYTZ 131100Z AUTO 27005KT 4SM BR CLR 20/19 A3015 RMK SLP212 DENSITY ALT 700FT
06:02
V
18 °C 5 mi - 260° 260° 5 kt SPECI CYTZ 131002Z AUTO 26005KT 230V290 5SM BR CLR 18/18 A3015 RMK SLP211 DENSITY ALT 500FT
05:00
V
20 °C 6 mi - 270° 270° 4 kt METAR CYTZ 130900Z AUTO 27004KT 240V330 6SM BR CLR 20/19 A3014 RMK SLP207 DENSITY ALT 600FT
04:48
V
20 °C 6 mi - 270° 270° 4 kt SPECI CYTZ 130848Z AUTO 27004KT 220V300 6SM BR CLR 20/20 A3014 RMK SLP207 DENSITY ALT 700FT
04:00
M
20 °C 4 mi - 250° 250° 4 kt METAR CYTZ 130800Z AUTO 25004KT 230V310 4SM BR CLR 20/19 A3013 RMK SLP203 DENSITY ALT 600FT
03:37
M
20 °C 3 mi - 270° 270° 4 kt SPECI CYTZ 130737Z AUTO 27004KT 230V320 3SM BR CLR 20/20 A3012 RMK SLP203 DENSITY ALT 700FT
03:26
I
20 °C 2 mi - 270° 270° 4 kt SPECI CYTZ 130726Z AUTO 27004KT 220V310 2SM BR FEW006 20/19 A3013 RMK VIS VRB 1 1/2-2 1/2 SLP204 DENSITY ALT 600FT
03:18
I
20 °C 1 mi - 260° 260° 4 kt SPECI CYTZ 130718Z AUTO 26004KT 220V290 1SM R26/P6000FT/N BR FEW006 20/20 A3013 RMK VIS VRB 3/8-2 SLP204 DENSITY ALT 700FT
03:07
L
19 °C ⅜ mi - Var Var 2 kt SPECI CYTZ 130707Z AUTO VRB02KT 3/8SM R26/3500VP6000FT FG FEW006 19/19 A3013 RMK SLP204 DENSITY ALT 600FT
02:48
I
20 °C 1¾ mi - 280° 280° 5 kt SPECI CYTZ 130648Z AUTO 28005KT 220V310 1 3/4SM R26/3500FT/N BR CLR 20/20 A3012 RMK SLP203 DENSITY ALT 700FT
02:36
I
20 °C 2¼ mi - 260° 260° 4 kt SPECI CYTZ 130636Z AUTO 26004KT 220V320 2 1/4SM R26/1600FT/N BR CLR 20/20 A3013 RMK SLP205 DENSITY ALT 700FT
02:12
I
20 °C 1½ mi - Var Var 2 kt SPECI CYTZ 130612Z AUTO VRB02KT 1 1/2SM BR CLR 20/20 A3013 RMK SLP205 DENSITY ALT 700FT
01:57
I
20 °C 1¾ mi - Var Var 2 kt SPECI CYTZ 130557Z AUTO VRB02KT 1 3/4SM BR CLR 20/20 A3013 RMK VIS VRB 3/4-3 SLP205 DENSITY ALT 700FT
01:48
I
20 °C 2 mi - 360° 360° 0 kt SPECI CYTZ 130548Z AUTO 00000KT 2SM BR CLR 20/20 A3013 RMK SLP206 DENSITY ALT 700FT
01:37
I
20 °C 1¾ mi - 360° 360° 0 kt SPECI CYTZ 130537Z AUTO 00000KT 1 3/4SM BR CLR 20/20 A3013 RMK SLP206 DENSITY ALT 700FT
01:24
M
21 °C 3 mi - 270° 270° 4 kt SPECI CYTZ 130524Z AUTO 27004KT 230V320 3SM BR CLR 21/20 A3014 RMK SLP207 DENSITY ALT 800FT
01:00
I
21 °C 2¼ mi - 260° 260° 4 kt METAR CYTZ 130500Z AUTO 26004KT 190V310 2 1/4SM BR CLR 21/20 A3014 RMK SLP206 DENSITY ALT 800FT
00:25
V
21 °C 5 mi - 270° 270° 5 kt SPECI CYTZ 130425Z AUTO 27005KT 240V320 5SM BR CLR 21/20 A3013 RMK SLP204 DENSITY ALT 800FT

12 de julho de 2024

Hora Código Clima Temp. Visibilidade Tecto Vento METAR/SPECI
23:00
V
21 °C 9 mi - 310° 310° 5 kt METAR CYTZ 130300Z AUTO 31005KT 260V320 9SM CLR 21/20 A3012 RMK SLP200 DENSITY ALT 900FT
22:00
V
21 °C 9 mi - Var Var 2 kt METAR CYTZ 130200Z AUTO VRB02KT 9SM SCT110 SCT130 21/20 A3012 RMK SLP202 DENSITY ALT 800FT
21:15
V
21 °C 9 mi 13.000 ft 330° 330° 4 kt SPECI CYTZ 130115Z AUTO 33004KT 300V360 9SM FEW096 BKN130 21/20 A3012 RMK SLP200 DENSITY ALT 900FT
21:00
V
21 °C 9 mi 9.000 ft 300° 300° 5 kt METAR CYTZ 130100Z AUTO 30005KT 9SM -RA FEW050 SCT076 BKN090 OVC130 21/20 A3012 RMK PCPN 3.0MM PAST HR SLP200 DENSITY ALT 800FT
20:31
V
21 °C 8 mi 7.100 ft 250° 250° 8 kt SPECI CYTZ 130031Z AUTO 25008KT 8SM RA BKN071 OVC090 21/20 A3014 RMK PCPN 2.2MM PAST HR SLP207 DENSITY ALT 800FT
20:00
V
21 °C 7 mi 4.800 ft 280° 280° 7 kt METAR CYTZ 130000Z AUTO 28007KT 7SM RA BKN048 OVC076 21/19 A3013 RMK PCPN 2.8MM PAST HR SLP205 DENSITY ALT 800FT
19:54
V
21 °C 6 mi 4.800 ft 280° 280° 4 kt SPECI CYTZ 122354Z AUTO 28004KT 220V310 6SM RA BR BKN048 OVC076 21/19 A3013 RMK PCPN 2.5MM PAST HR SLP204 DENSITY ALT 800FT
19:39
V
21 °C 8 mi 7.600 ft 230° 230° 8 - 15 kt SPECI CYTZ 122339Z AUTO 23008G15KT 8SM TSRA SCT048 OVC076 21/19 A3012 RMK LTNG DIST SW PCPN 1.2MM PAST HR SLP202 DENSITY ALT 800FT
19:30
V
22 °C 9 mi 8.100 ft 230° 230° 10 - 16 kt SPECI CYTZ 122330Z AUTO 23010G16KT 9SM -RA BKN081 OVC098 22/20 A3012 RMK LTNG DIST SW PCPN 0.5MM PAST HR SLP202 DENSITY ALT 900FT
19:14
V
22 °C 9 mi 8.100 ft 220° 220° 9 - 15 kt SPECI CYTZ 122314Z AUTO 22009G15KT 9SM -TSRA FEW040 BKN081 OVC098 22/20 A3012 RMK LTNG DIST S SW SLP200 DENSITY ALT 900FT
18:57
V
22 °C 9 mi 8.100 ft 200° 200° 10 kt SPECI CYTZ 122257Z AUTO 20010KT 9SM -RA VCTS FEW042 OVC081 22/21 A3011 RMK LTNG DIST SW PCPN 1.2MM PAST HR SLP197 DENSITY ALT 1000FT
18:40
V
22 °C 6 mi 7.000 ft 190° 190° 7 kt SPECI CYTZ 122240Z AUTO 19007KT 180V280 6SM -RA BR FEW055 BKN070 OVC089 22/21 A3011 RMK LTNG DIST SW W PCPN 1.0MM PAST HR SLP196 DENSITY ALT 1000FT
18:26
V
22 °C 5 mi 7.200 ft 260° 260° 7 - 15 kt SPECI CYTZ 122226Z AUTO 26007G15KT 220V290 5SM RA BR SCT055 BKN072 OVC083 22/21 A3010 RMK LTNG DIST SW W PCPN 0.8MM PAST HR SLP195 DENSITY ALT 1000FT
18:00
V
22 °C 9 mi 8.600 ft 260° 260° 7 kt METAR CYTZ 122200Z AUTO 26007KT 9SM -RA FEW071 OVC086 22/21 A3010 RMK PCPN 0.5MM PAST HR SLP196 DENSITY ALT 1000FT
17:13
V
26 °C 9 mi 11.000 ft 180° 180° 3 kt SPECI CYTZ 122113Z AUTO 18003KT 040V190 9SM -RA SCT096 BKN110 26/19 A3010 RMK LTNG DIST SW W SLP194 DENSITY ALT 1400FT
16:37
V
27 °C 9 mi - 160° 160° 4 kt SPECI CYTZ 122037Z AUTO 16004KT 060V180 9SM CLR 27/19 A3009 RMK LTNG DIST N SW W SLP191 DENSITY ALT 1500FT
16:15
V
27 °C 9 mi - 180° 180° 4 kt SPECI CYTZ 122015Z AUTO 18004KT 140V200 9SM CLR 27/19 A3010 RMK LTNG DIST N SW SLP194 DENSITY ALT 1600FT
15:56
I
27 °C 2¼ mi - 180° 180° 5 kt SPECI CYTZ 121956Z AUTO 18005KT 2 1/4SM HZ SCT091 27/19 A3011 RMK LTNG DIST N NW SLP196 DENSITY ALT 1500FT
15:42
I
26 °C 2 mi - 180° 180° 6 kt SPECI CYTZ 121942Z AUTO 18006KT 2SM HZ SCT091 26/19 A3011 RMK LTNG DIST N SLP197 DENSITY ALT 1400FT
15:00
V
26 °C 9 mi - 180° 180° 8 kt METAR CYTZ 121900Z AUTO 18008KT 9SM SCT100 26/19 A3011 RMK SLP199 DENSITY ALT 1400FT
14:00
V
26 °C 9 mi - 180° 180° 4 kt METAR CYTZ 121800Z AUTO 18004KT 150V250 9SM CLR 26/18 A3012 RMK SLP201 DENSITY ALT 1400FT
13:00
V
25 °C 9 mi - 180° 180° 6 kt METAR CYTZ 121700Z AUTO 18006KT 9SM CLR 25/19 A3014 RMK SLP207 DENSITY ALT 1300FT
12:00
V
23 °C 9 mi - 190° 190° 6 kt METAR CYTZ 121600Z AUTO 19006KT 180V240 9SM CLR 23/17 A3015 RMK SLP210 DENSITY ALT 1100FT
11:00
V
23 °C 9 mi - 200° 200° 3 kt METAR CYTZ 121500Z AUTO 20003KT 9SM SCT066 23/19 A3014 RMK SLP209 DENSITY ALT 1000FT
10:00
V
23 °C 9 mi 6.600 ft 180° 180° 4 kt METAR CYTZ 121400Z AUTO 18004KT 9SM BKN066 23/17 A3014 RMK SLP208 DENSITY ALT 1000FT
09:00
V
23 °C 9 mi - 200° 200° 5 kt METAR CYTZ 121300Z AUTO 20005KT 180V240 9SM CLR 23/18 A3014 RMK SLP206 DENSITY ALT 1000FT
08:00
V
22 °C 9 mi - 290° 290° 3 kt METAR CYTZ 121200Z AUTO 29003KT 240V330 9SM CLR 22/17 A3012 RMK SLP202 DENSITY ALT 1000FT
07:00
V
20 °C 9 mi - 300° 300° 4 kt METAR CYTZ 121100Z AUTO 30004KT 240V310 9SM CLR 20/16 A3011 RMK SLP199 DENSITY ALT 700FT
06:00
V
19 °C 9 mi - 300° 300° 5 kt METAR CYTZ 121000Z AUTO 30005KT 250V320 9SM CLR 19/16 A3011 RMK SLP197 DENSITY ALT 700FT
05:00
V
19 °C 9 mi 6.600 ft 280° 280° 5 kt METAR CYTZ 120900Z AUTO 28005KT 9SM BKN066 19/16 A3009 RMK SLP192 DENSITY ALT 700FT
04:00
V
20 °C 9 mi - 280° 280° 5 kt METAR CYTZ 120800Z AUTO 28005KT 9SM CLR 20/16 A3008 RMK SLP188 DENSITY ALT 700FT
03:00
V
20 °C 9 mi - 250° 250° 4 kt METAR CYTZ 120700Z AUTO 25004KT 210V300 9SM FEW066 20/16 A3008 RMK SLP188 DENSITY ALT 800FT
02:00
V
20 °C 9 mi - 310° 310° 5 kt METAR CYTZ 120600Z AUTO 31005KT 250V320 9SM CLR 20/16 A3008 RMK SLP188 DENSITY ALT 700FT
Relatar uma mudança